createdAt,value
2022-12-11T00:01:20.992Z,14.40
2022-12-11T00:03:49.473Z,14.93
2022-12-11T00:06:20.340Z,13.63
2022-12-11T00:08:48.765Z,14.82
2022-12-11T00:11:18.175Z,14.30
2022-12-11T00:13:46.191Z,13.63
2022-12-11T00:16:14.326Z,15.70
2022-12-11T00:18:42.418Z,14.85
2022-12-11T00:21:13.911Z,14.63
2022-12-11T00:23:42.118Z,14.10
2022-12-11T00:26:15.968Z,15.07
2022-12-11T00:28:45.632Z,14.48
2022-12-11T00:31:18.359Z,14.10
2022-12-11T00:33:52.385Z,13.68
2022-12-11T00:36:24.227Z,14.10
2022-12-11T00:38:52.948Z,14.20
2022-12-11T00:41:21.349Z,14.05
2022-12-11T00:43:49.367Z,14.90
2022-12-11T00:46:17.518Z,15.82
2022-12-11T00:48:45.600Z,15.45
2022-12-11T00:51:13.802Z,15.23
2022-12-11T00:53:41.810Z,14.50
2022-12-11T00:56:19.195Z,16.35
2022-12-11T00:58:48.235Z,15.05
2022-12-11T01:01:19.482Z,15.52
2022-12-11T01:06:17.668Z,15.75
2022-12-11T01:08:46.618Z,15.52
2022-12-11T01:11:16.554Z,16.00
2022-12-11T01:13:44.777Z,15.70
2022-12-11T01:16:15.807Z,14.60
2022-12-11T01:18:43.931Z,16.10
2022-12-11T01:21:14.462Z,15.13
2022-12-11T01:23:43.766Z,16.00
2022-12-11T01:26:16.530Z,15.75
2022-12-11T01:28:45.148Z,15.93
2022-12-11T01:31:15.094Z,15.80
2022-12-11T01:33:46.775Z,15.65
2022-12-11T01:36:24.496Z,17.55
2022-12-11T01:38:52.782Z,15.23
2022-12-11T01:41:21.618Z,15.40
2022-12-11T01:43:59.685Z,15.13
2022-12-11T01:46:28.650Z,16.30
2022-12-11T01:48:57.467Z,16.90
2022-12-11T01:51:26.043Z,16.67
2022-12-11T01:54:03.263Z,16.67
2022-12-11T01:56:34.920Z,17.15
2022-12-11T01:59:08.446Z,18.45
2022-12-11T02:01:41.487Z,16.73
2022-12-11T02:04:12.217Z,16.88
2022-12-11T02:06:43.734Z,17.38
2022-12-11T02:09:19.439Z,16.73
2022-12-11T02:12:05.733Z,17.75
2022-12-11T02:15:06.320Z,17.20
2022-12-11T02:17:45.350Z,16.77
2022-12-11T02:20:34.077Z,16.88
2022-12-11T02:23:14.140Z,16.02
2022-12-11T02:25:53.465Z,16.98
2022-12-11T02:28:24.406Z,16.15
2022-12-11T02:30:58.456Z,18.00
2022-12-11T02:33:38.310Z,17.27
2022-12-11T02:36:08.207Z,16.65
2022-12-11T02:38:40.097Z,16.88
2022-12-11T02:41:13.228Z,17.77
2022-12-11T02:43:44.940Z,17.40
2022-12-11T02:46:14.754Z,17.60
2022-12-11T02:48:44.079Z,17.77
2022-12-11T02:51:15.380Z,17.20
2022-12-11T02:56:21.026Z,16.98
2022-12-11T02:58:58.779Z,16.33
2022-12-11T03:01:27.845Z,16.50
2022-12-11T03:03:57.552Z,15.73
2022-12-11T03:06:32.422Z,15.98
2022-12-11T03:09:00.407Z,14.93
2022-12-11T03:11:28.378Z,15.65
2022-12-11T03:13:56.583Z,14.50
2022-12-11T03:16:43.807Z,14.43
2022-12-11T03:19:33.067Z,13.70
2022-12-11T03:22:12.769Z,13.85
2022-12-11T03:24:56.303Z,13.40
2022-12-11T03:27:32.784Z,14.32
2022-12-11T03:30:15.362Z,14.40
2022-12-11T03:32:57.006Z,14.60
2022-12-11T03:35:41.440Z,15.98
2022-12-11T03:38:32.891Z,16.45
2022-12-11T03:43:33.447Z,15.45
2022-12-11T03:46:03.652Z,17.38
2022-12-11T03:48:37.220Z,17.48
2022-12-11T03:51:09.578Z,17.83
2022-12-11T03:53:39.656Z,18.00
2022-12-11T03:56:10.200Z,17.50
2022-12-11T03:58:38.297Z,17.77
2022-12-11T04:01:10.755Z,17.83
2022-12-11T04:03:39.362Z,17.27
2022-12-11T04:06:07.514Z,17.52
2022-12-11T04:08:35.449Z,18.27
2022-12-11T04:11:24.528Z,18.63
2022-12-11T04:14:12.446Z,18.35
2022-12-11T04:16:43.188Z,17.63
2022-12-11T04:19:33.594Z,18.58
2022-12-11T04:22:20.079Z,18.17
2022-12-11T04:24:51.570Z,17.58
2022-12-11T04:27:42.988Z,18.13
2022-12-11T04:30:16.716Z,18.55
2022-12-11T04:32:44.833Z,19.13
2022-12-11T04:35:13.994Z,18.35
2022-12-11T04:37:42.493Z,18.08
2022-12-11T04:40:13.194Z,18.17
2022-12-11T04:42:41.259Z,18.58
2022-12-11T04:45:11.115Z,19.42
2022-12-11T04:47:41.254Z,19.10
2022-12-11T04:50:11.647Z,19.85
2022-12-11T04:52:39.704Z,18.97
2022-12-11T04:55:08.758Z,17.63
2022-12-11T04:57:37.111Z,18.23
2022-12-11T05:00:10.146Z,19.00
2022-12-11T05:02:42.088Z,19.25
2022-12-11T05:05:12.272Z,18.50
2022-12-11T05:07:40.451Z,19.45
2022-12-11T05:10:09.105Z,18.58
2022-12-11T05:12:37.033Z,19.90
2022-12-11T05:15:05.322Z,18.90
2022-12-11T05:17:33.277Z,19.05
2022-12-11T05:20:01.185Z,19.63
2022-12-11T05:22:31.050Z,18.58
2022-12-11T05:24:59.089Z,19.27
2022-12-11T05:27:27.278Z,19.50
2022-12-11T05:29:59.375Z,19.25
2022-12-11T05:32:27.675Z,19.92
2022-12-11T05:34:56.350Z,19.40
2022-12-11T05:37:24.463Z,18.02
2022-12-11T05:39:52.492Z,18.95
2022-12-11T05:42:24.105Z,19.13
2022-12-11T05:44:59.212Z,18.85
2022-12-11T05:47:28.294Z,18.70
2022-12-11T05:49:56.211Z,21.33
2022-12-11T05:52:24.271Z,19.45
2022-12-11T05:54:52.235Z,18.77
2022-12-11T05:57:20.172Z,18.92
2022-12-11T05:59:48.387Z,17.88
2022-12-11T06:02:16.391Z,18.27
2022-12-11T06:04:44.361Z,19.13
2022-12-11T06:07:12.363Z,17.90
2022-12-11T06:09:40.418Z,17.35
2022-12-11T06:12:08.387Z,17.52
2022-12-11T06:14:36.333Z,18.38
2022-12-11T06:17:04.263Z,19.02
2022-12-11T06:19:36.793Z,17.10
2022-12-11T06:22:05.776Z,17.05
2022-12-11T06:24:33.755Z,17.63
2022-12-11T06:27:01.688Z,17.15
2022-12-11T06:29:29.607Z,17.40
2022-12-11T06:31:57.611Z,17.10
2022-12-11T06:34:25.725Z,16.98
2022-12-11T06:36:53.685Z,17.67
2022-12-11T06:39:21.629Z,27.17
2022-12-11T06:41:49.687Z,17.67
2022-12-11T06:44:17.628Z,17.55
2022-12-11T06:46:45.764Z,18.10
2022-12-11T06:49:13.783Z,18.00
2022-12-11T06:51:41.756Z,18.48
2022-12-11T06:54:09.731Z,17.67
2022-12-11T06:56:37.872Z,17.30
2022-12-11T06:59:07.581Z,15.88
2022-12-11T07:01:35.708Z,16.02
2022-12-11T07:04:03.674Z,15.65
2022-12-11T07:06:31.701Z,15.85
2022-12-11T07:08:59.654Z,16.17
2022-12-11T07:11:27.695Z,15.20
2022-12-11T07:13:55.832Z,16.67
2022-12-11T07:16:23.825Z,16.00
2022-12-11T07:18:52.948Z,16.48
2022-12-11T07:21:22.278Z,15.98
2022-12-11T07:23:51.302Z,16.02
2022-12-11T07:26:22.330Z,15.55
2022-12-11T07:28:50.592Z,16.75
2022-12-11T07:31:24.737Z,15.82
2022-12-11T07:34:14.147Z,16.23
2022-12-11T07:36:42.759Z,15.40
2022-12-11T07:39:13.236Z,15.02
2022-12-11T07:41:41.261Z,15.43
2022-12-11T07:44:12.002Z,15.50
2022-12-11T07:46:40.650Z,15.13
2022-12-11T07:49:08.659Z,14.65
2022-12-11T07:51:38.243Z,15.38
2022-12-11T07:54:09.893Z,15.30
2022-12-11T07:56:37.881Z,15.10
2022-12-11T07:59:07.136Z,14.85
2022-12-11T08:01:37.489Z,14.40
2022-12-11T08:04:07.860Z,14.73
2022-12-11T08:06:38.595Z,14.50
2022-12-11T08:09:09.186Z,14.80
2022-12-11T08:11:37.633Z,16.13
2022-12-11T08:14:07.779Z,15.25
2022-12-11T08:16:35.961Z,14.88
2022-12-11T08:19:03.967Z,15.75
2022-12-11T08:21:31.960Z,15.25
2022-12-11T08:23:59.916Z,13.18
2022-12-11T08:26:30.954Z,14.35
2022-12-11T08:29:02.818Z,14.32
2022-12-11T08:31:36.222Z,14.30
2022-12-11T08:34:04.266Z,14.10
2022-12-11T08:36:32.256Z,15.18
2022-12-11T08:39:01.665Z,14.18
2022-12-11T08:41:31.404Z,14.82
2022-12-11T08:44:01.405Z,14.55
2022-12-11T08:46:32.585Z,14.93
2022-12-11T08:51:30.235Z,15.23
2022-12-11T08:54:01.630Z,14.70
2022-12-11T08:56:30.758Z,17.83
2022-12-11T08:59:01.894Z,16.33
2022-12-11T09:01:30.540Z,16.20
2022-12-11T09:03:59.044Z,14.48
2022-12-11T09:06:29.716Z,13.60
2022-12-11T09:09:00.994Z,14.55
2022-12-11T09:14:03.565Z,13.18
2022-12-11T09:16:38.804Z,12.68
2022-12-11T09:19:08.450Z,14.05
2022-12-11T09:21:36.418Z,12.68
2022-12-11T09:24:04.603Z,13.90
2022-12-11T09:26:35.379Z,14.10
2022-12-11T09:29:09.228Z,14.10
2022-12-11T09:31:38.066Z,14.45
2022-12-11T09:34:08.613Z,13.43
2022-12-11T09:36:37.015Z,13.98
2022-12-11T09:39:06.957Z,13.98
2022-12-11T09:42:06.819Z,12.63
2022-12-11T09:44:55.493Z,12.75
2022-12-11T09:47:29.788Z,12.32
2022-12-11T09:50:26.807Z,12.65
2022-12-11T09:53:14.322Z,13.50
2022-12-11T09:55:47.729Z,12.68
2022-12-11T09:58:41.392Z,13.95
2022-12-11T10:01:22.197Z,13.15
2022-12-11T10:04:11.384Z,13.95
2022-12-11T10:07:05.681Z,12.90
2022-12-11T10:09:57.236Z,13.15
2022-12-11T10:12:52.757Z,13.27
2022-12-11T10:15:32.701Z,12.15
2022-12-11T10:18:05.319Z,13.52
2022-12-11T10:20:40.469Z,12.98
2022-12-11T10:23:10.619Z,14.23
2022-12-11T10:25:44.555Z,14.30
2022-12-11T10:28:17.233Z,13.50
2022-12-11T10:31:21.027Z,12.85
2022-12-11T10:34:01.001Z,13.02
2022-12-11T10:36:41.228Z,14.25
2022-12-11T10:39:22.996Z,14.10
2022-12-11T10:41:53.143Z,13.40
2022-12-11T10:44:29.661Z,15.10
2022-12-11T10:47:06.196Z,15.25
2022-12-11T10:49:36.217Z,13.27
2022-12-11T10:52:34.513Z,12.52
2022-12-11T10:55:07.181Z,13.05
2022-12-11T10:57:40.380Z,14.18
2022-12-11T11:00:38.806Z,14.00
2022-12-11T11:03:20.182Z,13.07
2022-12-11T11:05:51.030Z,12.27
2022-12-11T11:08:25.056Z,12.35
2022-12-11T11:10:53.246Z,12.43
2022-12-11T11:13:24.380Z,12.68
2022-12-11T11:16:07.675Z,12.65
2022-12-11T11:18:36.278Z,10.73
2022-12-11T11:21:04.889Z,10.80
2022-12-11T11:23:32.965Z,11.57
2022-12-11T11:26:03.110Z,9.98
2022-12-11T11:28:35.183Z,10.30
2022-12-11T11:31:09.650Z,10.02
2022-12-11T11:33:46.544Z,9.80
2022-12-11T11:36:40.563Z,9.20
2022-12-11T11:39:27.011Z,9.05
2022-12-11T11:42:19.668Z,11.18
2022-12-11T11:45:18.943Z,10.45
2022-12-11T11:47:59.955Z,10.25
2022-12-11T11:50:34.077Z,10.05
2022-12-11T11:53:13.074Z,10.20
2022-12-11T11:55:44.902Z,10.70
2022-12-11T11:58:33.831Z,10.48
2022-12-11T12:01:06.236Z,10.35
2022-12-11T12:03:34.238Z,11.00
2022-12-11T12:06:13.423Z,11.30
2022-12-11T12:08:45.282Z,11.45
2022-12-11T12:11:21.989Z,11.80
2022-12-11T12:14:28.828Z,11.18
2022-12-11T12:17:21.458Z,10.57
2022-12-11T12:20:08.125Z,9.95
2022-12-11T12:23:13.605Z,10.60
2022-12-11T12:25:57.363Z,10.40
2022-12-11T12:28:40.660Z,8.98
2022-12-11T12:31:29.632Z,9.90
2022-12-11T12:34:38.130Z,10.05
2022-12-11T12:37:18.622Z,9.98
2022-12-11T12:39:49.553Z,10.20
2022-12-11T12:42:33.820Z,9.30
2022-12-11T12:45:14.319Z,9.23
2022-12-11T12:47:53.201Z,8.65
2022-12-11T12:50:24.811Z,9.93
2022-12-11T12:52:55.481Z,9.27
2022-12-11T12:55:30.746Z,8.77
2022-12-11T12:58:07.035Z,8.27
2022-12-11T13:00:43.553Z,8.70
2022-12-11T13:03:24.499Z,8.57
2022-12-11T13:06:05.974Z,8.52
2022-12-11T13:08:41.651Z,7.43
2022-12-11T13:11:14.827Z,8.02
2022-12-11T13:14:05.659Z,7.88
2022-12-11T13:16:37.791Z,9.20
2022-12-11T13:19:19.598Z,8.38
2022-12-11T13:22:12.052Z,9.10
2022-12-11T13:25:02.619Z,9.15
2022-12-11T13:27:33.435Z,7.93
2022-12-11T13:30:06.959Z,7.80
2022-12-11T13:32:35.708Z,7.80
2022-12-11T13:35:06.885Z,7.53
2022-12-11T13:37:44.776Z,7.47
2022-12-11T13:40:23.478Z,6.68
2022-12-11T13:42:53.332Z,6.85
2022-12-11T13:45:28.436Z,7.85
2022-12-11T13:47:59.146Z,8.20
2022-12-11T13:50:32.776Z,6.95
2022-12-11T13:53:04.073Z,7.28
2022-12-11T13:58:01.990Z,8.20
2022-12-11T14:00:33.794Z,7.40
2022-12-11T14:03:08.545Z,8.30
2022-12-11T14:05:36.818Z,8.65
2022-12-11T14:08:11.505Z,8.65
2022-12-11T14:10:41.135Z,8.15
2022-12-11T14:13:40.855Z,8.80
2022-12-11T14:16:09.281Z,7.18
2022-12-11T14:18:38.330Z,7.50
2022-12-11T14:21:07.581Z,8.18
2022-12-11T14:23:38.491Z,7.75
2022-12-11T14:26:19.995Z,7.82
2022-12-11T14:28:48.096Z,8.55
2022-12-11T14:31:28.661Z,8.80
2022-12-11T14:34:04.226Z,9.20
2022-12-11T14:36:34.392Z,9.70
2022-12-11T14:39:14.222Z,9.45
2022-12-11T14:42:22.416Z,8.95
2022-12-11T14:45:21.601Z,8.50
2022-12-11T14:47:50.199Z,10.23
2022-12-11T14:50:26.992Z,9.25
2022-12-11T14:53:17.932Z,8.85
2022-12-11T14:55:48.462Z,9.27
2022-12-11T14:58:24.359Z,8.98
2022-12-11T15:01:08.616Z,8.45
2022-12-11T15:03:40.450Z,7.57
2022-12-11T15:06:31.648Z,8.85
2022-12-11T15:09:10.480Z,9.32
2022-12-11T15:11:38.592Z,8.95
2022-12-11T15:14:06.898Z,9.65
2022-12-11T15:16:38.590Z,9.02
2022-12-11T15:19:06.874Z,9.43
2022-12-11T15:21:38.843Z,9.65
2022-12-11T15:24:08.331Z,10.90
2022-12-11T15:26:47.611Z,10.50
2022-12-11T15:29:41.312Z,10.00
2022-12-11T15:32:09.236Z,10.68
2022-12-11T15:34:58.799Z,10.95
2022-12-11T15:37:37.263Z,11.63
2022-12-11T15:40:07.299Z,11.23
2022-12-11T15:42:45.584Z,11.23
2022-12-11T15:45:19.177Z,11.40
2022-12-11T15:47:48.143Z,12.55
2022-12-11T15:50:22.786Z,10.68
2022-12-11T15:52:52.043Z,10.77
2022-12-11T15:55:21.274Z,10.10
2022-12-11T15:57:56.423Z,10.45
2022-12-11T16:00:29.323Z,10.25
2022-12-11T16:02:58.532Z,10.50
2022-12-11T16:05:27.971Z,10.60
2022-12-11T16:08:00.433Z,11.45
2022-12-11T16:10:28.680Z,10.90
2022-12-11T16:13:00.539Z,10.93
2022-12-11T16:15:33.525Z,11.02
2022-12-11T16:18:04.183Z,10.32
2022-12-11T16:20:32.887Z,10.95
2022-12-11T16:23:01.603Z,10.85
2022-12-11T16:25:29.645Z,11.15
2022-12-11T16:28:02.692Z,11.43
2022-12-11T16:30:31.059Z,12.48
2022-12-11T16:33:01.262Z,13.05
2022-12-11T16:35:30.640Z,11.05
2022-12-11T16:37:58.815Z,12.05
2022-12-11T16:40:26.931Z,10.93
2022-12-11T16:42:55.332Z,12.77
2022-12-11T16:45:26.485Z,12.15
2022-12-11T16:47:54.841Z,10.15
2022-12-11T16:50:23.574Z,12.35
2022-12-11T16:52:51.532Z,11.30
2022-12-11T16:55:23.249Z,11.20
2022-12-11T16:57:51.272Z,10.98
2022-12-11T17:00:19.556Z,11.35
2022-12-11T17:02:47.715Z,13.18
2022-12-11T17:05:15.713Z,12.00
2022-12-11T17:07:43.637Z,12.57
2022-12-11T17:10:11.661Z,12.10
2022-12-11T17:12:40.178Z,12.80
2022-12-11T17:15:08.672Z,12.52
2022-12-11T17:17:36.961Z,13.25
2022-12-11T17:20:05.291Z,12.57
2022-12-11T17:22:33.269Z,13.32
2022-12-11T17:25:01.197Z,12.75
2022-12-11T17:27:29.210Z,13.30
2022-12-11T17:29:57.283Z,12.93
2022-12-11T17:32:25.252Z,13.52
2022-12-11T17:34:53.855Z,13.50
2022-12-11T17:37:21.920Z,13.80
2022-12-11T17:39:52.434Z,14.50
2022-12-11T17:42:20.644Z,15.32
2022-12-11T17:44:48.611Z,14.30
2022-12-11T17:47:16.580Z,13.65
2022-12-11T17:49:44.806Z,14.23
2022-12-11T17:52:13.747Z,13.15
2022-12-11T17:54:41.754Z,14.32
2022-12-11T17:57:09.723Z,15.23
2022-12-11T17:59:37.695Z,15.20
2022-12-11T18:02:05.763Z,16.30
2022-12-11T18:04:33.773Z,16.42
2022-12-11T18:07:01.724Z,15.75
2022-12-11T18:09:29.787Z,17.23
2022-12-11T18:11:57.707Z,17.70
2022-12-11T18:14:25.814Z,18.13
2022-12-11T18:16:54.182Z,16.27
2022-12-11T18:19:23.816Z,17.65
2022-12-11T18:21:57.439Z,17.55
2022-12-11T18:24:32.709Z,18.25
2022-12-11T18:27:00.820Z,17.33
2022-12-11T18:29:28.915Z,17.20
2022-12-11T18:31:56.921Z,17.48
2022-12-11T18:34:24.947Z,18.13
2022-12-11T18:39:24.373Z,17.60
2022-12-11T18:42:16.519Z,17.88
2022-12-11T18:44:40.855Z,17.42
2022-12-11T18:47:08.983Z,18.88
2022-12-11T18:49:38.719Z,18.80
2022-12-11T18:52:07.055Z,18.98
2022-12-11T18:54:35.164Z,18.63
2022-12-11T18:57:03.276Z,18.17
2022-12-11T18:59:31.313Z,18.75
2022-12-11T19:01:59.698Z,17.25
2022-12-11T19:04:29.841Z,17.05
2022-12-11T19:06:58.296Z,18.07
2022-12-11T19:09:26.206Z,18.50
2022-12-11T19:11:54.742Z,17.90
2022-12-11T19:14:23.229Z,17.33
2022-12-11T19:16:51.888Z,18.45
2022-12-11T19:19:21.896Z,18.90
2022-12-11T19:21:51.407Z,18.67
2022-12-11T19:24:27.296Z,18.70
2022-12-11T19:26:58.623Z,19.10
2022-12-11T19:29:35.475Z,17.33
2022-12-11T19:32:04.464Z,17.60
2022-12-11T19:34:32.515Z,19.85
2022-12-11T19:37:00.763Z,17.98
2022-12-11T19:39:30.874Z,19.10
2022-12-11T19:41:58.866Z,19.45
2022-12-11T19:44:27.310Z,18.88
2022-12-11T19:46:55.437Z,19.88
2022-12-11T19:49:23.657Z,19.33
2022-12-11T19:51:52.552Z,19.08
2022-12-11T19:54:20.609Z,19.90
2022-12-11T19:56:48.696Z,19.38
2022-12-11T19:59:18.975Z,19.05
2022-12-11T20:01:49.211Z,18.52
2022-12-11T20:04:19.006Z,19.65
2022-12-11T20:06:47.832Z,18.70
2022-12-11T20:09:16.515Z,17.80
2022-12-11T20:11:45.702Z,19.00
2022-12-11T20:14:26.158Z,18.60
2022-12-11T20:17:11.945Z,19.03
2022-12-11T20:19:42.067Z,17.63
2022-12-11T20:22:10.602Z,19.13
2022-12-11T20:24:38.903Z,19.58
2022-12-11T20:27:06.863Z,19.65
2022-12-11T20:29:34.837Z,18.73
2022-12-11T20:32:02.913Z,18.17
2022-12-11T20:34:30.979Z,18.35
2022-12-11T20:36:59.155Z,18.55
2022-12-11T20:39:27.683Z,17.52
2022-12-11T20:41:56.088Z,16.92
2022-12-11T20:44:24.331Z,18.33
2022-12-11T20:46:52.760Z,17.10
2022-12-11T20:49:20.795Z,17.60
2022-12-11T20:51:48.734Z,17.50
2022-12-11T20:54:17.239Z,18.50
2022-12-11T20:56:45.706Z,17.25
2022-12-11T20:59:14.438Z,17.05
2022-12-11T21:01:45.632Z,16.67
2022-12-11T21:06:41.729Z,17.88
2022-12-11T21:09:18.755Z,17.23
2022-12-11T21:11:47.076Z,18.02
2022-12-11T21:14:15.920Z,17.67
2022-12-11T21:16:44.547Z,17.73
2022-12-11T21:19:16.892Z,17.13
2022-12-11T21:21:46.444Z,18.00
2022-12-11T21:24:21.664Z,19.05
2022-12-11T21:26:50.722Z,17.98
2022-12-11T21:29:18.886Z,16.70
2022-12-11T21:31:50.463Z,18.20
2022-12-11T21:34:25.274Z,17.00
2022-12-11T21:36:57.648Z,18.08
2022-12-11T21:39:27.017Z,16.77
2022-12-11T21:41:55.087Z,17.42
2022-12-11T21:47:11.243Z,15.65
2022-12-11T21:49:39.428Z,16.85
2022-12-11T21:52:08.063Z,16.98
2022-12-11T21:54:36.210Z,16.73
2022-12-11T21:57:04.634Z,18.67
2022-12-11T21:59:32.632Z,19.30
2022-12-11T22:02:01.090Z,17.60
2022-12-11T22:04:29.144Z,18.95
2022-12-11T22:06:57.064Z,17.70
2022-12-11T22:09:24.988Z,18.15
2022-12-11T22:11:58.068Z,17.25
2022-12-11T22:14:26.859Z,18.38
2022-12-11T22:16:54.966Z,17.92
2022-12-11T22:19:24.706Z,17.48
2022-12-11T22:21:55.729Z,18.48
2022-12-11T22:24:23.744Z,18.27
2022-12-11T22:26:51.703Z,17.85
2022-12-11T22:32:00.472Z,19.85
2022-12-11T22:34:28.498Z,17.35
2022-12-11T22:36:57.350Z,17.70
2022-12-11T22:39:26.007Z,17.90
2022-12-11T22:41:54.013Z,16.95
2022-12-11T22:44:22.904Z,17.60
2022-12-11T22:46:51.153Z,16.60
2022-12-11T22:49:20.484Z,16.35
2022-12-11T22:51:48.910Z,16.25
2022-12-11T22:54:17.148Z,16.33
2022-12-11T22:56:45.263Z,16.67
2022-12-11T22:59:13.755Z,16.77
2022-12-11T23:01:41.784Z,17.30
2022-12-11T23:04:09.704Z,16.83
2022-12-11T23:06:37.662Z,16.02
2022-12-11T23:09:05.670Z,17.65
2022-12-11T23:11:37.802Z,17.48
2022-12-11T23:14:08.435Z,17.98
2022-12-11T23:16:36.537Z,17.63
2022-12-11T23:19:04.943Z,17.75
2022-12-11T23:21:33.010Z,16.70
2022-12-11T23:24:01.283Z,18.00
2022-12-11T23:26:29.691Z,18.15
2022-12-11T23:28:58.744Z,17.55
2022-12-11T23:31:27.795Z,16.90
2022-12-11T23:33:55.929Z,17.73
2022-12-11T23:36:24.559Z,16.73
2022-12-11T23:38:54.928Z,16.55
2022-12-11T23:41:23.922Z,17.77
2022-12-11T23:43:51.951Z,16.83
2022-12-11T23:46:23.065Z,16.67
2022-12-11T23:48:51.614Z,16.25
2022-12-11T23:51:21.279Z,17.95
2022-12-11T23:53:49.346Z,16.75
2022-12-11T23:56:29.352Z,16.48
2022-12-11T23:58:58.299Z,16.48
